Flugplatz Obermehler-Schlotheim

Für EDCO sind keine METAR/TAF Berichte vorhanden.
Es werden die Flugwettermeldungen vom Flugplatz Erfurt in 39 km Entfernung angezeigt.

Bericht für EDDE

vom 22.03. um 22:20 UTC

Wind 8 kt aus 200°

Sichtweite 10 km oder mehr

gute Sicht, keine Wolken < 5000 ft, keine CB, keine Wettererscheinungen (CAVOK)

Temperatur 10.0°C

Taupunkt 7.0°C

Luftfeuchtigkeit 82%

Luftdruck 1027 hPa

EDDE 222220Z 20008KT CAVOK 10/07 Q1027

Prognose für EDDE

vom 22.03. um 17:00 UTC

Am 22.03. zwischen 18:00 UTC und 19:00 UTC

Wind 5 kt aus 100°

Sichtweite 10 km oder mehr

keine signifikanten Wettererscheinungen

keine Wolken


Am 22.03. zwischen 19:00 und 21:00 UTC übergehend zu

Wind 7 kt aus 220°

Sichtweite 10 km oder mehr

keine signifikanten Wettererscheinungen

keine Wolken


Zwischen 08:00 und 10:00 UTC übergehend zu

Wind 7 kt aus 320°

Sichtweite 10 km oder mehr

keine signifikanten Wettererscheinungen

keine Wolken

TAF EDDE 221700Z 2218/2318 10005KT CAVOK BECMG 2219/2221 22007KT BECMG 2308/2310 32007KT
Impressum